Time;durP1;ratioP1;P1;durP2;ratioP2;P2;SDS_P1;SDS_P2;PMS_P1;PMS_P2;Temp;Humidity;BMP_temperature;BMP_pressure;BME280_temperature;BME280_humidity;BME280_pressure;Samples;Min_cycle;Max_cycle;Signal;HPM_P1;HPM_P2
2021/05/24 00:00:24;;;;;;;4.20;1.98;;;12.40;72.60;;;;;;4887765;29;20030;-75
2021/05/24 00:03:06;;;;;;;2.90;1.30;;;12.40;72.90;;;;;;4887781;29;20029;-74
2021/05/24 00:05:57;;;;;;;3.13;1.40;;;12.40;73.10;;;;;;4875782;29;20061;-72
2021/05/24 00:08:23;;;;;;;4.30;1.88;;;12.30;73.30;;;;;;4881382;29;20167;-73
2021/05/24 00:10:49;;;;;;;5.03;1.90;;;12.30;73.60;;;;;;4888605;29;20075;-72
2021/05/24 00:13:17;;;;;;;5.68;1.60;;;12.30;73.80;;;;;;4886471;29;20098;-72
2021/05/24 00:15:46;;;;;;;3.65;1.42;;;12.30;73.50;;;;;;4869132;29;20021;-70
2021/05/24 00:18:13;;;;;;;4.30;1.48;;;12.30;73.90;;;;;;4887374;29;20020;-73
2021/05/24 00:20:45;;;;;;;4.68;2.05;;;12.20;73.70;;;;;;4886956;29;20037;-78
2021/05/24 00:23:11;;;;;;;2.92;1.30;;;12.20;72.80;;;;;;4874240;29;20029;-71
2021/05/24 00:25:38;;;;;;;4.38;1.75;;;12.20;73.80;;;;;;4884751;29;20040;-72
2021/05/24 00:28:06;;;;;;;4.38;1.60;;;12.20;73.80;;;;;;4871189;29;20032;-70
2021/05/24 00:30:35;;;;;;;4.75;1.80;;;12.20;74.20;;;;;;4867519;29;20029;-72
2021/05/24 00:33:03;;;;;;;4.25;2.00;;;12.20;74.50;;;;;;4879827;29;20466;-72
2021/05/24 00:35:30;;;;;;;5.93;1.52;;;12.20;73.90;;;;;;4850540;29;20025;-75
2021/05/24 00:37:56;;;;;;;3.08;1.30;;;12.10;74.70;;;;;;4867128;29;20032;-70
2021/05/24 00:40:22;;;;;;;3.38;1.45;;;12.10;74.00;;;;;;4867598;29;20494;-73
2021/05/24 00:42:48;;;;;;;4.78;1.65;;;12.20;73.00;;;;;;4874228;29;20403;-75
2021/05/24 00:45:15;;;;;;;2.55;1.30;;;12.20;74.40;;;;;;4870258;29;20078;-75
2021/05/24 00:47:42;;;;;;;4.03;1.67;;;12.10;74.20;;;;;;4853034;29;20029;-72
2021/05/24 00:50:09;;;;;;;3.83;1.55;;;12.10;74.40;;;;;;4867519;29;20128;-71
2021/05/24 00:52:36;;;;;;;4.05;1.48;;;12.10;74.80;;;;;;4879250;29;20519;-71
2021/05/24 00:55:04;;;;;;;4.18;1.90;;;12.10;75.30;;;;;;4867349;29;20055;-72
2021/05/24 00:57:30;;;;;;;4.93;1.75;;;12.10;74.80;;;;;;4880264;29;20441;-73
2021/05/24 00:59:56;;;;;;;5.30;1.90;;;12.10;75.30;;;;;;4874428;29;20029;-72
2021/05/24 01:02:22;;;;;;;4.88;1.55;;;12.10;74.70;;;;;;4868996;29;20029;-72
2021/05/24 01:04:48;;;;;;;3.40;1.85;;;12.10;75.10;;;;;;4877814;29;20085;-71
2021/05/24 01:07:14;;;;;;;6.22;2.50;;;12.00;74.80;;;;;;4882678;29;20037;-74
2021/05/24 01:09:39;;;;;;;4.35;1.77;;;12.00;74.40;;;;;;4880997;29;20040;-72
2021/05/24 01:12:07;;;;;;;6.07;1.80;;;12.00;74.80;;;;;;4853177;29;20030;-77
2021/05/24 01:14:33;;;;;;;5.90;1.70;;;12.10;74.70;;;;;;4865559;29;20485;-75
2021/05/24 01:16:59;;;;;;;5.25;1.77;;;12.00;74.80;;;;;;4868167;29;20053;-74
2021/05/24 01:19:26;;;;;;;7.05;1.98;;;12.00;74.20;;;;;;4884614;29;20085;-72
2021/05/24 01:21:52;;;;;;;4.68;1.50;;;12.00;74.40;;;;;;4884078;29;20099;-72
2021/05/24 01:24:19;;;;;;;4.35;1.60;;;12.00;75.00;;;;;;4884761;29;20037;-78
2021/05/24 01:26:46;;;;;;;6.57;1.98;;;12.00;74.60;;;;;;4867392;29;20039;-71
2021/05/24 01:29:13;;;;;;;5.28;1.77;;;12.00;74.20;;;;;;4885159;29;20097;-72
2021/05/24 01:31:39;;;;;;;5.13;1.55;;;12.00;74.80;;;;;;4884544;29;20404;-71
2021/05/24 01:34:05;;;;;;;8.15;2.85;;;12.00;75.60;;;;;;4884935;29;20040;-72
2021/05/24 01:36:32;;;;;;;6.20;2.40;;;12.00;74.60;;;;;;4884571;29;20028;-75
2021/05/24 01:38:57;;;;;;;7.10;1.80;;;12.00;74.80;;;;;;4885086;29;20033;-71
2021/05/24 01:41:24;;;;;;;5.50;1.77;;;12.00;75.20;;;;;;4868025;29;20022;-71
2021/05/24 01:43:49;;;;;;;4.13;1.90;;;12.00;75.70;;;;;;4877790;29;20024;-71
2021/05/24 01:46:15;;;;;;;7.00;2.00;;;12.00;75.20;;;;;;4879535;29;20025;-71
2021/05/24 01:48:41;;;;;;;8.85;2.20;;;12.00;75.70;;;;;;4866386;29;20022;-71
2021/05/24 01:51:08;;;;;;;9.70;2.38;;;11.90;75.90;;;;;;4865996;29;20098;-70
2021/05/24 01:53:36;;;;;;;7.75;2.90;;;11.90;75.70;;;;;;4865942;29;20040;-71
2021/05/24 01:56:03;;;;;;;8.05;2.08;;;11.90;75.00;;;;;;4865320;29;20026;-71
2021/05/24 01:58:30;;;;;;;7.22;2.47;;;11.90;75.30;;;;;;4866030;29;20048;-71
2021/05/24 02:01:22;;;;;;;7.68;2.83;;;11.90;75.70;;;;;;4872526;29;20021;-71
2021/05/24 02:03:48;;;;;;;8.33;2.93;;;11.90;75.70;;;;;;4864647;29;20108;-71
2021/05/24 02:06:14;;;;;;;7.43;2.28;;;11.90;75.90;;;;;;4865808;29;20044;-71
2021/05/24 02:08:40;;;;;;;6.32;2.40;;;11.90;76.40;;;;;;4869249;29;20512;-71
2021/05/24 02:11:06;;;;;;;5.70;2.30;;;11.90;76.30;;;;;;4874258;29;20021;-71
2021/05/24 02:13:32;;;;;;;8.45;2.25;;;11.90;75.80;;;;;;4865625;29;20041;-71
2021/05/24 02:15:58;;;;;;;7.30;2.53;;;11.80;76.40;;;;;;4865634;29;20089;-71
2021/05/24 02:18:24;;;;;;;7.25;2.85;;;11.80;75.80;;;;;;4865608;29;20065;-71
2021/05/24 02:20:50;;;;;;;5.32;2.30;;;11.80;75.20;;;;;;4865488;29;20053;-71
2021/05/24 02:23:16;;;;;;;7.95;2.33;;;11.90;75.00;;;;;;4881347;29;20031;-71
2021/05/24 02:25:42;;;;;;;7.88;2.10;;;11.80;74.80;;;;;;4884151;29;20079;-71
2021/05/24 02:28:08;;;;;;;8.05;2.30;;;11.80;75.10;;;;;;4866819;29;20098;-71
2021/05/24 02:30:35;;;;;;;6.13;2.40;;;11.80;75.30;;;;;;4865670;29;20116;-71
2021/05/24 02:33:01;;;;;;;5.88;2.22;;;11.80;75.30;;;;;;4865316;29;20112;-71
2021/05/24 02:35:28;;;;;;;10.25;2.75;;;11.80;75.80;;;;;;4865322;29;20025;-71
2021/05/24 02:37:56;;;;;;;9.32;2.55;;;11.70;75.70;;;;;;4865286;29;20029;-71
2021/05/24 02:40:23;;;;;;;7.28;2.92;;;11.70;75.70;;;;;;4848658;29;20022;-71
2021/05/24 02:42:50;;;;;;;10.02;2.72;;;11.60;75.20;;;;;;4871634;29;20029;-71
2021/05/24 02:45:17;;;;;;;6.18;2.45;;;11.60;75.00;;;;;;4883706;29;20033;-71
2021/05/24 02:47:44;;;;;;;8.50;2.22;;;11.60;75.00;;;;;;4866981;29;20486;-71
2021/05/24 02:50:12;;;;;;;8.68;3.40;;;11.60;74.40;;;;;;4865215;29;20029;-71
2021/05/24 02:52:38;;;;;;;9.25;2.53;;;11.60;75.10;;;;;;4863676;29;20033;-71
2021/05/24 02:55:05;;;;;;;7.40;3.10;;;11.60;75.30;;;;;;4863952;29;20379;-71
2021/05/24 02:57:32;;;;;;;8.75;3.00;;;11.50;74.90;;;;;;4865120;29;20452;-71
2021/05/24 02:59:57;;;;;;;11.27;3.25;;;11.50;75.00;;;;;;4864886;29;20032;-71
2021/05/24 03:02:25;;;;;;;10.27;2.67;;;11.50;75.00;;;;;;4867449;29;20104;-72
2021/05/24 03:04:52;;;;;;;9.02;3.40;;;11.50;75.00;;;;;;4866743;29;20061;-73
2021/05/24 03:07:18;;;;;;;11.05;3.22;;;11.40;74.60;;;;;;4877301;29;20060;-72
2021/05/24 03:09:45;;;;;;;10.55;2.80;;;11.50;75.00;;;;;;4882418;29;20032;-71
2021/05/24 03:12:11;;;;;;;10.32;2.65;;;11.40;74.40;;;;;;4877511;29;20025;-72
2021/05/24 03:14:36;;;;;;;10.07;3.17;;;11.40;74.10;;;;;;4878613;29;20416;-71
2021/05/24 03:17:02;;;;;;;10.02;2.80;;;11.40;74.30;;;;;;4884680;29;20033;-72
2021/05/24 03:19:28;;;;;;;10.45;2.95;;;11.40;74.50;;;;;;4873763;29;20032;-72
2021/05/24 03:21:54;;;;;;;9.38;2.55;;;11.30;74.10;;;;;;4881412;29;20504;-73
2021/05/24 03:24:20;;;;;;;6.00;2.58;;;11.40;73.90;;;;;;4883416;29;20565;-76
2021/05/24 03:26:46;;;;;;;11.52;2.40;;;11.30;74.20;;;;;;4892306;29;20098;-73
2021/05/24 03:29:11;;;;;;;8.85;2.72;;;11.30;74.80;;;;;;4872706;29;20090;-73
2021/05/24 03:31:37;;;;;;;9.10;3.08;;;11.30;74.40;;;;;;4881467;29;20408;-73
2021/05/24 03:34:04;;;;;;;12.85;2.97;;;11.30;74.90;;;;;;4875825;29;20052;-75
2021/05/24 03:36:29;;;;;;;8.73;2.40;;;11.30;75.20;;;;;;4883893;29;20030;-74
2021/05/24 03:38:55;;;;;;;14.70;3.17;;;11.30;74.80;;;;;;4873637;29;20057;-72
2021/05/24 03:41:21;;;;;;;9.05;2.63;;;11.30;75.30;;;;;;4872414;29;20040;-72
2021/05/24 03:43:48;;;;;;;10.27;3.60;;;11.30;74.90;;;;;;4875372;29;20029;-73
2021/05/24 03:46:15;;;;;;;9.88;3.13;;;11.30;75.20;;;;;;4881508;29;20037;-73
2021/05/24 03:48:40;;;;;;;8.43;3.10;;;11.40;75.40;;;;;;4878166;29;20029;-74
2021/05/24 03:51:07;;;;;;;9.38;3.00;;;11.40;75.30;;;;;;4885397;29;20120;-73
2021/05/24 03:53:34;;;;;;;9.30;2.60;;;11.40;75.60;;;;;;4876363;29;20378;-71
2021/05/24 03:56:00;;;;;;;10.27;2.70;;;11.40;75.70;;;;;;4885231;29;20037;-71
2021/05/24 03:58:26;;;;;;;12.05;2.92;;;11.40;75.20;;;;;;4883039;29;20060;-71
2021/05/24 04:00:52;;;;;;;9.55;3.35;;;11.40;75.70;;;;;;4879140;29;20149;-70
2021/05/24 04:03:20;;;;;;;9.68;3.63;;;11.40;75.70;;;;;;4871821;29;20036;-70
2021/05/24 04:06:10;;;;;;;9.05;2.45;;;11.40;75.50;;;;;;4876612;29;20052;-70
2021/05/24 04:08:47;;;;;;;9.65;2.80;;;11.40;75.60;;;;;;4882583;29;20037;-71
2021/05/24 04:11:14;;;;;;;11.70;3.42;;;11.40;75.80;;;;;;4890111;29;20040;-70
2021/05/24 04:13:52;;;;;;;12.32;3.08;;;11.40;75.90;;;;;;4885212;29;20061;-71
2021/05/24 04:16:25;;;;;;;12.48;3.53;;;11.40;76.00;;;;;;4880623;29;20029;-71
2021/05/24 04:18:51;;;;;;;;;;;11.40;76.00;;;;;;4868515;29;20029;-70
2021/05/24 04:21:28;;;;;;;6.13;2.65;;;11.40;76.10;;;;;;4890361;29;19919;-71
2021/05/24 04:23:58;;;;;;;8.13;2.88;;;11.40;76.60;;;;;;4891730;29;20029;-70
2021/05/24 04:26:24;;;;;;;6.50;2.60;;;11.50;76.30;;;;;;4884527;29;20025;-70
2021/05/24 04:29:03;;;;;;;9.13;3.30;;;11.40;75.90;;;;;;4892253;29;20112;-70
2021/05/24 04:31:36;;;;;;;9.27;2.70;;;11.40;76.10;;;;;;4891920;29;20028;-69
2021/05/24 04:34:03;;;;;;;6.22;2.63;;;11.50;76.10;;;;;;4891598;29;20071;-69
2021/05/24 04:36:29;;;;;;;14.60;3.05;;;11.40;76.00;;;;;;4889746;29;20028;-69
2021/05/24 04:39:03;;;;;;;9.98;3.95;;;11.40;75.60;;;;;;4887361;29;20028;-70
2021/05/24 04:41:30;;;;;;;8.70;2.80;;;11.40;75.30;;;;;;4868446;29;20374;-69
2021/05/24 04:44:12;;;;;;;8.93;2.47;;;11.30;75.20;;;;;;4885029;29;20112;-69
2021/05/24 04:46:40;;;;;;;9.48;2.60;;;11.30;75.50;;;;;;4882317;29;20036;-70
2021/05/24 04:49:09;;;;;;;11.70;3.53;;;11.30;75.20;;;;;;4884762;29;20048;-69
2021/05/24 04:52:04;;;;;;;8.27;2.83;;;11.30;75.50;;;;;;4884957;29;20025;-70
2021/05/24 04:54:45;;;;;;;11.82;2.88;;;11.30;75.60;;;;;;4871715;29;20021;-70
2021/05/24 04:57:28;;;;;;;11.02;2.92;;;11.30;75.50;;;;;;4884724;29;20112;-69
2021/05/24 04:59:54;;;;;;;;;;;11.20;76.00;;;;;;4890257;29;20028;-70
2021/05/24 05:02:27;;;;;;;9.65;2.97;;;11.20;76.10;;;;;;4885766;29;19908;-70
2021/05/24 05:04:58;;;;;;;10.27;3.08;;;11.20;75.80;;;;;;4884461;29;20132;-69
2021/05/24 05:07:27;;;;;;;9.45;2.67;;;11.20;75.50;;;;;;4881229;29;20057;-70
2021/05/24 05:09:54;;;;;;;13.30;3.08;;;11.20;75.50;;;;;;4883867;29;20025;-69
2021/05/24 05:12:20;;;;;;;10.43;4.00;;;11.20;75.90;;;;;;4884238;29;20031;-69
2021/05/24 05:14:46;;;;;;;11.48;3.25;;;11.20;76.10;;;;;;4884089;29;20025;-70
2021/05/24 05:17:12;;;;;;;12.55;3.17;;;11.10;75.80;;;;;;4884026;29;20492;-69
2021/05/24 05:19:38;;;;;;;12.15;3.40;;;11.10;76.00;;;;;;4882962;29;20100;-69
2021/05/24 05:22:04;;;;;;;10.63;3.35;;;11.10;75.70;;;;;;4894092;29;20053;-70
2021/05/24 05:24:30;;;;;;;13.52;3.50;;;11.10;76.50;;;;;;4867670;29;20025;-69
2021/05/24 05:26:56;;;;;;;12.70;3.20;;;11.10;76.10;;;;;;4884048;29;20029;-70
2021/05/24 05:29:22;;;;;;;14.15;4.50;;;11.10;76.40;;;;;;4887880;29;20029;-69
2021/05/24 05:31:47;;;;;;;14.88;3.50;;;11.10;76.20;;;;;;4884248;29;20603;-69
2021/05/24 05:34:13;;;;;;;14.40;3.20;;;11.10;76.30;;;;;;4894796;29;20092;-69
2021/05/24 05:36:39;;;;;;;8.68;3.00;;;11.20;76.40;;;;;;4884893;29;20025;-69
2021/05/24 05:39:06;;;;;;;14.88;4.63;;;11.20;76.00;;;;;;4882723;29;20025;-69
2021/05/24 05:41:32;;;;;;;14.23;3.80;;;11.20;76.70;;;;;;4883754;29;20120;-69
2021/05/24 05:43:58;;;;;;;11.77;2.88;;;11.20;76.30;;;;;;4892356;29;20105;-69
2021/05/24 05:46:23;;;;;;;14.40;3.90;;;11.20;76.10;;;;;;4892405;29;20052;-69
2021/05/24 05:48:49;;;;;;;14.35;3.75;;;11.20;76.40;;;;;;4888362;29;20032;-70
2021/05/24 05:51:15;;;;;;;13.02;4.25;;;11.30;76.60;;;;;;4883356;29;20032;-69
2021/05/24 05:53:41;;;;;;;14.60;4.45;;;11.30;76.40;;;;;;4886710;29;20112;-69
2021/05/24 05:56:06;;;;;;;11.02;3.80;;;11.30;76.20;;;;;;4883663;29;20037;-70
2021/05/24 05:58:32;;;;;;;15.13;3.78;;;11.40;76.60;;;;;;4883683;29;20025;-69
2021/05/24 06:01:02;;;;;;;13.90;3.53;;;11.50;77.30;;;;;;4885388;29;20052;-69
2021/05/24 06:03:29;;;;;;;16.67;4.03;;;11.50;77.00;;;;;;4889936;29;20128;-70
2021/05/24 06:05:55;;;;;;;13.95;3.80;;;11.60;77.20;;;;;;4886678;29;20061;-69
2021/05/24 06:08:20;;;;;;;17.75;4.68;;;11.70;77.10;;;;;;4884388;29;20081;-69
2021/05/24 06:10:46;;;;;;;14.75;3.88;;;11.80;77.10;;;;;;4884891;29;20033;-69
2021/05/24 06:13:12;;;;;;;21.25;4.03;;;11.80;76.60;;;;;;4883682;29;20085;-70
2021/05/24 06:15:38;;;;;;;15.77;3.80;;;11.90;76.60;;;;;;4883958;29;20037;-70
2021/05/24 06:18:04;;;;;;;11.40;3.60;;;12.00;76.60;;;;;;4883246;29;20024;-69
2021/05/24 06:20:31;;;;;;;17.92;4.32;;;12.00;76.00;;;;;;4886138;29;20044;-70
2021/05/24 06:22:57;;;;;;;16.73;4.60;;;11.90;75.80;;;;;;4892540;29;20032;-70
2021/05/24 06:25:23;;;;;;;17.08;4.50;;;12.00;75.70;;;;;;4887362;29;20400;-70
2021/05/24 06:27:49;;;;;;;20.98;4.13;;;12.00;75.80;;;;;;4883325;29;20021;-70
2021/05/24 06:30:15;;;;;;;14.60;3.60;;;12.10;75.60;;;;;;4881517;29;20125;-70
2021/05/24 06:32:41;;;;;;;19.05;4.00;;;12.10;76.00;;;;;;4882784;29;20036;-70
2021/05/24 06:35:08;;;;;;;12.30;3.53;;;12.10;75.60;;;;;;4884113;29;20033;-70
2021/05/24 06:37:34;;;;;;;14.57;3.70;;;12.10;75.50;;;;;;4882551;29;20021;-70
2021/05/24 06:40:00;;;;;;;16.13;3.42;;;12.10;75.30;;;;;;4882118;29;20021;-70
2021/05/24 06:42:26;;;;;;;13.95;3.30;;;12.10;75.70;;;;;;4882853;29;20076;-70
2021/05/24 06:44:55;;;;;;;13.55;3.50;;;12.00;75.50;;;;;;4886004;29;20504;-69
2021/05/24 06:47:23;;;;;;;14.43;3.67;;;12.00;75.60;;;;;;4882997;29;20029;-70
2021/05/24 06:49:49;;;;;;;14.20;3.47;;;12.00;75.70;;;;;;4883106;29;20036;-69
2021/05/24 06:52:15;;;;;;;10.65;3.03;;;11.90;75.10;;;;;;4880845;29;20021;-70
2021/05/24 06:54:41;;;;;;;9.57;3.15;;;11.90;74.40;;;;;;4896017;29;20096;-70
2021/05/24 06:57:07;;;;;;;8.65;2.20;;;11.80;72.70;;;;;;4887583;29;20048;-70
2021/05/24 06:59:35;;;;;;;9.20;2.05;;;11.80;72.00;;;;;;4883828;29;20029;-70
2021/05/24 07:02:02;;;;;;;8.27;2.70;;;11.70;72.30;;;;;;4884269;29;20029;-70
2021/05/24 07:04:28;;;;;;;7.55;2.40;;;11.60;72.00;;;;;;4866596;29;20056;-70
2021/05/24 07:06:54;;;;;;;10.43;2.50;;;11.60;72.60;;;;;;4883527;29;20081;-70
2021/05/24 07:09:20;;;;;;;7.95;1.90;;;11.50;72.60;;;;;;4883675;29;20485;-70
2021/05/24 07:11:47;;;;;;;7.75;2.17;;;11.50;72.70;;;;;;4879058;29;20017;-70
2021/05/24 07:14:13;;;;;;;6.13;1.90;;;11.40;72.50;;;;;;4872865;29;20029;-70
2021/05/24 07:16:39;;;;;;;6.78;1.80;;;11.40;72.80;;;;;;4886661;29;20473;-71
2021/05/24 07:19:04;;;;;;;5.85;1.52;;;11.30;72.20;;;;;;4878021;29;20128;-70
2021/05/24 07:21:30;;;;;;;6.57;1.88;;;11.30;72.80;;;;;;4882636;29;20022;-71
2021/05/24 07:23:56;;;;;;;7.65;2.92;;;11.30;72.40;;;;;;4883196;29;20025;-70
2021/05/24 07:26:22;;;;;;;4.97;1.25;;;11.40;72.80;;;;;;4880445;29;20037;-70
2021/05/24 07:28:48;;;;;;;8.23;1.42;;;11.60;72.80;;;;;;4879872;29;20033;-70
2021/05/24 07:31:14;;;;;;;7.35;1.55;;;11.70;72.60;;;;;;4886431;29;20420;-70
2021/05/24 07:33:40;;;;;;;5.10;1.67;;;12.00;74.70;;;;;;4881656;29;20033;-70
2021/05/24 07:36:06;;;;;;;4.18;1.20;;;12.60;76.60;;;;;;4881296;29;20049;-71
2021/05/24 07:38:32;;;;;;;3.90;1.20;;;13.40;78.90;;;;;;4884286;29;20033;-70
2021/05/24 07:40:58;;;;;;;4.32;1.20;;;14.00;76.60;;;;;;4882041;29;20025;-71
2021/05/24 07:43:25;;;;;;;5.72;1.10;;;14.50;72.40;;;;;;4877965;29;20120;-71
2021/05/24 07:45:51;;;;;;;4.05;1.02;;;14.60;69.50;;;;;;4889193;29;20037;-71
2021/05/24 07:48:17;;;;;;;4.82;1.10;;;14.60;68.10;;;;;;4890987;29;20028;-71
2021/05/24 07:50:43;;;;;;;6.63;1.30;;;14.80;67.20;;;;;;4883068;29;20036;-71
2021/05/24 07:53:08;;;;;;;3.25;0.93;;;14.90;68.30;;;;;;4882432;29;20029;-71
2021/05/24 07:55:35;;;;;;;3.58;1.00;;;15.10;66.80;;;;;;4885783;29;20568;-71
2021/05/24 07:58:02;;;;;;;3.05;0.80;;;15.20;65.90;;;;;;4896950;29;20111;-70
2021/05/24 08:00:28;;;;;;;3.95;1.25;;;15.20;64.90;;;;;;4885111;29;20017;-70
2021/05/24 08:02:54;;;;;;;3.58;0.90;;;15.10;63.70;;;;;;4885118;29;20519;-71
2021/05/24 08:05:21;;;;;;;3.65;1.13;;;15.00;63.10;;;;;;4890069;29;20052;-71
2021/05/24 08:07:47;;;;;;;4.00;1.20;;;15.00;65.00;;;;;;4890166;29;20848;-71
2021/05/24 08:10:16;;;;;;;5.10;1.10;;;15.30;67.50;;;;;;4887309;29;20793;-71
2021/05/24 08:12:43;;;;;;;4.97;1.38;;;15.80;70.90;;;;;;4882518;29;20041;-71
2021/05/24 08:15:11;;;;;;;5.53;1.42;;;16.30;66.30;;;;;;4882409;29;20026;-71
2021/05/24 08:17:39;;;;;;;7.68;1.50;;;16.60;66.80;;;;;;4887908;29;20030;-71
2021/05/24 08:20:06;;;;;;;4.18;0.90;;;17.10;67.00;;;;;;4895607;29;20021;-71
2021/05/24 08:22:32;;;;;;;7.88;1.73;;;17.60;65.10;;;;;;4891556;29;20090;-71
2021/05/24 08:24:57;;;;;;;3.53;0.95;;;18.30;68.40;;;;;;4884579;29;20025;-71
2021/05/24 08:27:25;;;;;;;4.10;1.17;;;18.90;65.30;;;;;;4888021;29;20055;-71
2021/05/24 08:29:50;;;;;;;5.55;1.45;;;19.30;61.30;;;;;;4883301;29;20029;-71
2021/05/24 08:32:17;;;;;;;3.03;1.08;;;19.40;59.00;;;;;;4883683;29;20313;-71
2021/05/24 08:34:42;;;;;;;3.85;1.08;;;19.30;59.00;;;;;;4892063;29;20056;-71
2021/05/24 08:37:08;;;;;;;4.13;1.15;;;19.10;57.70;;;;;;4889184;29;20484;-71
2021/05/24 08:39:34;;;;;;;3.78;1.17;;;19.00;57.00;;;;;;4885533;29;20032;-70
2021/05/24 08:42:00;;;;;;;5.88;1.67;;;19.00;55.90;;;;;;4885133;29;20060;-71
2021/05/24 08:44:27;;;;;;;4.70;1.58;;;19.30;56.80;;;;;;4882778;29;20074;-71
2021/05/24 08:46:53;;;;;;;4.28;1.10;;;19.60;58.50;;;;;;4893740;29;20103;-70
2021/05/24 08:49:19;;;;;;;4.93;0.95;;;20.00;56.90;;;;;;4880760;29;20029;-71
2021/05/24 08:51:45;;;;;;;5.10;1.30;;;20.30;55.80;;;;;;4883590;29;20493;-70
2021/05/24 08:54:11;;;;;;;5.10;1.55;;;20.70;56.50;;;;;;4890144;29;20100;-70
2021/05/24 08:56:37;;;;;;;5.78;1.65;;;20.90;55.40;;;;;;4884894;29;20067;-71
2021/05/24 08:59:04;;;;;;;6.47;1.30;;;21.30;55.60;;;;;;4884968;29;20557;-70
2021/05/24 09:01:30;;;;;;;5.90;1.63;;;21.70;55.00;;;;;;4884154;29;20025;-71
2021/05/24 09:04:01;;;;;;;6.65;1.50;;;22.00;53.00;;;;;;4894042;29;20056;-71
2021/05/24 09:06:45;;;;;;;7.18;2.22;;;22.20;50.10;;;;;;4884506;29;20056;-70
2021/05/24 09:09:16;;;;;;;9.00;2.10;;;22.40;52.40;;;;;;4884079;29;20044;-70
2021/05/24 09:11:43;;;;;;;7.13;2.75;;;22.60;50.50;;;;;;4880134;29;20433;-71
2021/05/24 09:14:19;;;;;;;7.95;2.40;;;22.80;50.80;;;;;;4882199;29;20021;-70
2021/05/24 09:16:55;;;;;;;9.32;3.42;;;23.20;51.10;;;;;;4860942;29;20120;-70
2021/05/24 09:19:23;;;;;;;7.03;2.60;;;23.40;48.00;;;;;;4882339;29;20028;-71
2021/05/24 09:21:58;;;;;;;8.32;2.70;;;23.40;47.50;;;;;;4888274;29;20401;-71
2021/05/24 09:24:40;;;;;;;6.97;2.30;;;23.20;47.20;;;;;;4881254;29;20104;-70
2021/05/24 09:27:28;;;;;;;7.18;1.92;;;23.00;48.20;;;;;;4886160;29;20044;-71
2021/05/24 09:29:59;;;;;;;6.20;1.40;;;22.90;48.90;;;;;;4881963;29;20032;-70
2021/05/24 09:32:26;;;;;;;4.93;1.40;;;23.10;48.00;;;;;;4883485;29;20378;-71
2021/05/24 09:34:59;;;;;;;6.30;1.40;;;23.50;46.90;;;;;;4885013;29;20021;-71
2021/05/24 09:37:36;;;;;;;5.85;1.60;;;23.70;46.80;;;;;;4877334;29;20438;-71
2021/05/24 09:40:21;;;;;;;7.00;1.42;;;23.80;46.20;;;;;;4882509;29;20032;-71
2021/05/24 09:42:47;;;;;;;8.48;1.88;;;23.70;46.40;;;;;;4877362;29;20475;-68
2021/05/24 09:45:18;;;;;;;5.22;1.75;;;23.80;48.60;;;;;;4880803;29;20068;-72
2021/05/24 09:47:45;;;;;;;6.47;1.75;;;24.10;50.40;;;;;;4875531;29;20473;-74
2021/05/24 09:50:19;;;;;;;5.88;1.30;;;24.30;50.00;;;;;;4878888;29;20036;-71
2021/05/24 09:52:49;;;;;;;5.60;1.70;;;24.30;47.70;;;;;;4849627;29;20045;-76
2021/05/24 09:55:15;;;;;;;7.05;1.63;;;24.10;44.60;;;;;;4849606;29;20057;-75
2021/05/24 09:57:55;;;;;;;8.00;2.00;;;24.10;42.90;;;;;;4866075;29;20389;-73
2021/05/24 10:00:25;;;;;;;7.60;1.83;;;24.00;43.90;;;;;;4855205;29;20504;-74
2021/05/24 10:02:53;;;;;;;6.95;1.70;;;23.60;44.20;;;;;;4880156;29;20025;-74
2021/05/24 10:05:19;;;;;;;6.47;1.90;;;23.10;44.50;;;;;;4865825;29;20718;-74
2021/05/24 10:07:46;;;;;;;9.30;1.90;;;22.70;45.00;;;;;;4853387;29;20182;-73
2021/05/24 10:10:13;;;;;;;11.45;2.33;;;22.40;45.10;;;;;;4876729;29;20033;-74
2021/05/24 10:12:39;;;;;;;3.30;1.15;;;22.10;46.60;;;;;;4880235;29;20037;-72
2021/05/24 10:15:07;;;;;;;3.22;0.80;;;21.70;46.50;;;;;;4865660;29;20025;-73
2021/05/24 10:17:34;;;;;;;4.43;1.10;;;21.20;45.50;;;;;;4858820;29;20036;-74
2021/05/24 10:20:00;;;;;;;3.72;1.15;;;20.70;47.00;;;;;;4882924;29;20029;-76
2021/05/24 10:22:27;;;;;;;4.90;1.30;;;20.00;46.50;;;;;;4874612;29;20080;-75
2021/05/24 10:24:53;;;;;;;6.22;1.83;;;19.30;47.50;;;;;;4876104;29;20083;-75
2021/05/24 10:27:20;;;;;;;6.30;1.98;;;18.60;49.40;;;;;;4864189;29;20025;-74
2021/05/24 10:29:46;;;;;;;5.30;1.67;;;17.90;51.30;;;;;;4865729;29;20038;-80
2021/05/24 10:32:22;;;;;;;5.50;1.55;;;17.40;51.10;;;;;;4865469;29;20531;-78
2021/05/24 10:34:48;;;;;;;5.57;1.38;;;16.90;52.10;;;;;;4872157;29;20100;-76
2021/05/24 10:37:17;;;;;;;5.20;1.30;;;16.60;53.30;;;;;;4880015;29;20026;-71
2021/05/24 10:39:48;;;;;;;6.97;1.85;;;16.40;54.00;;;;;;4871598;29;20401;-74
2021/05/24 10:42:14;;;;;;;6.88;1.60;;;16.30;55.10;;;;;;4887899;29;20090;-72
2021/05/24 10:44:45;;;;;;;4.45;1.05;;;16.20;55.70;;;;;;4883254;29;20029;-73
2021/05/24 10:47:23;;;;;;;6.65;1.88;;;16.20;56.50;;;;;;4875004;29;20052;-74
2021/05/24 10:50:05;;;;;;;6.28;1.60;;;16.60;59.30;;;;;;4878511;29;20492;-74
2021/05/24 10:52:35;;;;;;;6.97;1.60;;;17.70;60.60;;;;;;4883453;29;20029;-74
2021/05/24 10:55:27;;;;;;;8.40;1.65;;;18.90;60.40;;;;;;4882670;29;20052;-74
2021/05/24 10:58:02;;;;;;;7.40;1.88;;;20.20;60.70;;;;;;4881779;29;20065;-73
2021/05/24 11:00:46;;;;;;;5.68;0.90;;;21.50;58.50;;;;;;4886871;29;20051;-73
2021/05/24 11:03:13;;;;;;;5.15;1.00;;;22.30;54.00;;;;;;4883218;29;20033;-74
2021/05/24 11:05:38;;;;;;;5.50;1.02;;;22.70;51.50;;;;;;4865648;29;20045;-74
2021/05/24 11:08:08;;;;;;;1.42;0.50;;;22.30;47.80;;;;;;4889538;29;20484;-73
2021/05/24 11:10:46;;;;;;;2.55;0.52;;;21.60;48.20;;;;;;4878064;29;20420;-72
2021/05/24 11:13:12;;;;;;;2.55;0.60;;;20.50;48.10;;;;;;4876763;29;20055;-71
2021/05/24 11:15:43;;;;;;;2.92;0.60;;;19.60;48.10;;;;;;4887182;29;20033;-71
2021/05/24 11:18:10;;;;;;;2.55;0.70;;;18.90;50.00;;;;;;4879445;29;20025;-71
2021/05/24 11:21:15;;;;;;;4.05;0.80;;;18.30;50.10;;;;;;4860060;29;20501;-71
2021/05/24 11:26:38;;;;;;;2.70;1.60;;;17.20;52.80;;;;;;4882419;29;20042;-69
2021/05/24 11:29:14;;;;;;;5.45;1.30;;;16.90;54.20;;;;;;4886644;29;20036;-70
2021/05/24 11:31:43;;;;;;;5.30;1.15;;;16.70;55.00;;;;;;4879862;29;20030;-71
2021/05/24 11:34:35;;;;;;;2.35;0.98;;;16.50;55.70;;;;;;4869308;29;20497;-71
2021/05/24 11:37:04;;;;;;;3.15;1.45;;;16.30;55.70;;;;;;4877063;29;20116;-70
2021/05/24 11:39:34;;;;;;;4.05;1.10;;;16.30;56.10;;;;;;4882177;29;20116;-71
2021/05/24 11:42:19;;;;;;;4.03;1.20;;;16.20;56.50;;;;;;4883243;29;20044;-71
2021/05/24 11:44:47;;;;;;;5.25;1.50;;;16.20;57.70;;;;;;4877411;29;20046;-72
2021/05/24 11:47:19;;;;;;;6.75;2.10;;;16.50;59.20;;;;;;4883787;29;20509;-70
2021/05/24 11:49:51;;;;;;;3.75;1.20;;;17.00;60.30;;;;;;4878822;29;20017;-70
2021/05/24 11:52:18;;;;;;;6.03;1.70;;;17.70;61.20;;;;;;4886769;29;20044;-69
2021/05/24 11:54:48;;;;;;;6.05;1.73;;;18.30;61.90;;;;;;4886734;29;20104;-69
2021/05/24 11:57:19;;;;;;;5.60;1.52;;;18.80;60.40;;;;;;4886857;29;20036;-70
2021/05/24 11:59:46;;;;;;;4.90;1.48;;;18.80;56.80;;;;;;4885069;29;20422;-69
2021/05/24 12:02:13;;;;;;;7.22;2.85;;;18.70;55.20;;;;;;4882359;29;20094;-70
2021/05/24 12:04:45;;;;;;;7.60;1.75;;;18.40;54.90;;;;;;4886937;29;20071;-70
2021/05/24 12:07:15;;;;;;;4.70;1.25;;;18.10;55.10;;;;;;4886637;29;20044;-70
2021/05/24 12:09:50;;;;;;;5.82;1.63;;;17.80;55.40;;;;;;4877492;29;20053;-69
2021/05/24 12:12:34;;;;;;;7.55;2.03;;;17.70;56.20;;;;;;4874589;29;20058;-70
2021/05/24 12:15:12;;;;;;;5.75;1.55;;;17.60;57.10;;;;;;4878952;29;20109;-70
2021/05/24 12:17:38;;;;;;;4.63;1.50;;;17.60;58.00;;;;;;4867725;29;20557;-70
2021/05/24 12:20:09;;;;;;;4.70;1.23;;;17.60;58.00;;;;;;4877219;29;20029;-69
2021/05/24 12:22:39;;;;;;;5.05;1.30;;;17.60;57.70;;;;;;4876438;29;20073;-69
2021/05/24 12:25:06;;;;;;;6.03;1.30;;;17.50;58.70;;;;;;4882234;29;20029;-68
2021/05/24 12:27:32;;;;;;;5.25;1.35;;;17.40;57.10;;;;;;4883094;29;20033;-69
2021/05/24 12:30:29;;;;;;;7.10;1.60;;;17.30;57.30;;;;;;4881116;29;20033;-69
2021/05/24 12:33:08;;;;;;;3.00;1.00;;;17.20;57.10;;;;;;4886112;29;20029;-69
2021/05/24 12:35:40;;;;;;;4.95;1.60;;;17.10;58.30;;;;;;4875058;29;20077;-69
2021/05/24 12:38:17;;;;;;;11.95;5.43;;;17.00;58.30;;;;;;4881070;29;20040;-69
2021/05/24 12:40:43;;;;;;;25.08;12.93;;;17.00;59.70;;;;;;4881281;29;20531;-69
2021/05/24 12:43:09;;;;;;;6.68;1.13;;;17.00;58.00;;;;;;4867939;29;20090;-69
2021/05/24 12:45:35;;;;;;;6.97;1.50;;;17.00;56.80;;;;;;4885493;29;20021;-68
2021/05/24 12:48:15;;;;;;;7.43;1.90;;;16.90;57.00;;;;;;4874673;29;20054;-69
2021/05/24 12:50:44;;;;;;;6.22;1.60;;;16.80;56.70;;;;;;4888350;29;20032;-70
2021/05/24 12:53:18;;;;;;;4.93;1.15;;;16.70;57.10;;;;;;4882997;29;20036;-71
2021/05/24 12:55:45;;;;;;;3.53;1.30;;;16.60;57.90;;;;;;4882276;29;20457;-70